createdAt,value
2024-04-02T00:00:49.507Z,2.92
2024-04-02T00:01:51.664Z,2.28
2024-04-02T00:02:52.657Z,2.50
2024-04-02T00:03:53.833Z,2.27
2024-04-02T00:04:55.922Z,2.08
2024-04-02T00:05:56.983Z,2.18
2024-04-02T00:06:58.039Z,2.43
2024-04-02T00:07:59.122Z,2.15
2024-04-02T00:09:01.251Z,1.83
2024-04-02T00:10:02.299Z,2.17
2024-04-02T00:11:05.468Z,1.88
2024-04-02T00:12:09.046Z,1.75
2024-04-02T00:13:10.815Z,1.57
2024-04-02T00:14:12.122Z,1.73
2024-04-02T00:15:13.474Z,1.85
2024-04-02T00:16:15.490Z,1.73
2024-04-02T00:17:16.557Z,2.08
2024-04-02T00:18:18.250Z,1.52
2024-04-02T00:19:19.325Z,1.70
2024-04-02T00:20:22.477Z,1.72
2024-04-02T00:21:23.758Z,1.50
2024-04-02T00:22:24.801Z,1.37
2024-04-02T00:23:26.976Z,1.78
2024-04-02T00:24:28.116Z,1.67
2024-04-02T00:25:29.478Z,1.88
2024-04-02T00:26:30.510Z,1.87
2024-04-02T00:27:33.876Z,1.73
2024-04-02T00:28:34.979Z,1.55
2024-04-02T00:29:36.098Z,1.45
2024-04-02T00:30:37.147Z,1.22
2024-04-02T00:31:39.567Z,1.47
2024-04-02T00:32:40.588Z,1.73
2024-04-02T00:33:42.008Z,1.68
2024-04-02T00:34:43.329Z,1.62
2024-04-02T00:35:45.456Z,1.25
2024-04-02T00:36:46.525Z,1.32
2024-04-02T00:37:47.658Z,1.45
2024-04-02T00:38:49.719Z,1.37
2024-04-02T00:39:50.831Z,1.17
2024-04-02T00:40:52.471Z,1.18
2024-04-02T00:41:53.479Z,1.12
2024-04-02T00:43:06.917Z,1.23
2024-04-02T00:44:08.004Z,1.37
2024-04-02T00:45:09.446Z,1.53
2024-04-02T00:46:11.463Z,1.38
2024-04-02T00:47:13.119Z,1.32
2024-04-02T00:48:14.689Z,1.22
2024-04-02T00:49:16.746Z,1.10
2024-04-02T00:50:17.831Z,1.33
2024-04-02T00:51:18.898Z,1.38
2024-04-02T00:52:20.053Z,1.32
2024-04-02T00:53:22.867Z,1.45
2024-04-02T00:54:25.004Z,1.17
2024-04-02T00:55:26.285Z,1.37
2024-04-02T00:56:27.922Z,1.37
2024-04-02T00:57:32.220Z,1.18
2024-04-02T00:58:38.003Z,1.32
2024-04-02T00:59:39.659Z,1.17
2024-04-02T01:00:43.690Z,1.50
2024-04-02T01:01:44.761Z,1.20
2024-04-02T01:02:45.858Z,1.57
2024-04-02T01:03:46.944Z,1.48
2024-04-02T01:04:49.150Z,1.58
2024-04-02T01:05:50.879Z,1.62
2024-04-02T01:06:51.920Z,1.62
2024-04-02T01:07:54.358Z,1.90
2024-04-02T01:08:55.816Z,1.52
2024-04-02T01:09:56.934Z,1.32
2024-04-02T01:10:57.958Z,1.30
2024-04-02T01:12:00.215Z,1.53
2024-04-02T01:13:01.220Z,1.57
2024-04-02T01:14:03.630Z,1.32
2024-04-02T01:15:05.071Z,1.48
2024-04-02T01:16:07.145Z,1.50
2024-04-02T01:17:08.674Z,1.40
2024-04-02T01:18:09.675Z,1.37
2024-04-02T01:19:11.408Z,1.28
2024-04-02T01:20:13.447Z,1.27
2024-04-02T01:21:14.740Z,1.42
2024-04-02T01:22:15.783Z,1.17
2024-04-02T01:23:17.808Z,1.20
2024-04-02T01:24:18.873Z,1.12
2024-04-02T01:25:22.386Z,1.08
2024-04-02T01:26:23.428Z,1.10
2024-04-02T01:27:26.647Z,1.02
2024-04-02T01:28:27.678Z,0.87
2024-04-02T01:29:28.771Z,0.95
2024-04-02T01:30:29.881Z,1.02
2024-04-02T01:31:32.152Z,0.95
2024-04-02T01:32:33.194Z,0.87
2024-04-02T01:33:34.306Z,0.88
2024-04-02T01:34:35.297Z,0.85
2024-04-02T01:35:37.331Z,0.90
2024-04-02T01:36:38.486Z,0.85
2024-04-02T01:37:39.533Z,0.83
2024-04-02T01:38:40.586Z,0.82
2024-04-02T01:39:42.628Z,0.83
2024-04-02T01:40:44.993Z,0.78
2024-04-02T01:41:46.032Z,0.72
2024-04-02T01:42:47.094Z,0.90
2024-04-02T01:43:49.104Z,0.78
2024-04-02T01:44:51.258Z,0.67
2024-04-02T01:45:52.414Z,0.63
2024-04-02T01:46:53.459Z,0.65
2024-04-02T01:47:55.527Z,0.67
2024-04-02T01:48:56.814Z,0.82
2024-04-02T01:49:57.892Z,0.65
2024-04-02T01:50:59.102Z,0.67
2024-04-02T01:52:01.098Z,0.73
2024-04-02T01:53:02.160Z,0.63
2024-04-02T01:54:03.428Z,0.90
2024-04-02T01:55:04.536Z,0.80
2024-04-02T01:56:08.103Z,0.85
2024-04-02T01:57:09.138Z,0.73
2024-04-02T01:58:10.257Z,0.70
2024-04-02T01:59:11.347Z,0.77
2024-04-02T02:00:14.740Z,0.68
2024-04-02T02:01:15.803Z,0.73
2024-04-02T02:02:16.800Z,0.83
2024-04-02T02:03:18.116Z,0.93
2024-04-02T02:04:20.114Z,0.75
2024-04-02T02:05:21.173Z,0.70
2024-04-02T02:06:22.282Z,0.72
2024-04-02T02:07:23.439Z,0.82
2024-04-02T02:08:25.433Z,0.77
2024-04-02T02:09:26.476Z,0.75
2024-04-02T02:10:27.634Z,0.68
2024-04-02T02:11:30.059Z,0.72
2024-04-02T02:12:33.005Z,0.75
2024-04-02T02:13:35.470Z,0.80
2024-04-02T02:14:36.582Z,0.77
2024-04-02T02:15:37.642Z,1.13
2024-04-02T02:16:39.704Z,0.90
2024-04-02T02:17:42.294Z,0.90
2024-04-02T02:18:43.343Z,0.92
2024-04-02T02:19:44.422Z,0.85
2024-04-02T02:20:46.474Z,0.80
2024-04-02T02:21:47.732Z,0.87
2024-04-02T02:22:48.792Z,1.10
2024-04-02T02:23:50.306Z,0.88
2024-04-02T02:24:52.315Z,0.77
2024-04-02T02:25:53.928Z,0.82
2024-04-02T02:26:58.911Z,0.85
2024-04-02T02:28:00.058Z,0.67
2024-04-02T02:29:02.160Z,0.77
2024-04-02T02:30:05.109Z,0.90
2024-04-02T02:31:06.414Z,0.88
2024-04-02T02:32:07.454Z,0.77
2024-04-02T02:33:08.525Z,0.90
2024-04-02T02:34:10.561Z,0.87
2024-04-02T02:35:11.652Z,0.80
2024-04-02T02:36:12.893Z,0.73
2024-04-02T02:37:14.011Z,0.68
2024-04-02T02:38:16.091Z,0.87
2024-04-02T02:39:17.173Z,0.82
2024-04-02T02:40:18.224Z,0.88
2024-04-02T02:41:19.260Z,0.82
2024-04-02T02:42:23.857Z,0.92
2024-04-02T02:43:24.986Z,0.90
2024-04-02T02:44:27.207Z,0.80
2024-04-02T02:45:29.292Z,0.87
2024-04-02T02:46:30.387Z,0.73
2024-04-02T02:47:31.451Z,0.82
2024-04-02T02:48:32.560Z,0.83
2024-04-02T02:49:34.599Z,1.00
2024-04-02T02:50:35.620Z,0.88
2024-04-02T02:51:36.717Z,0.83
2024-04-02T02:52:37.727Z,0.85
2024-04-02T02:53:39.781Z,1.02
2024-04-02T02:54:40.846Z,0.98
2024-04-02T02:55:41.892Z,0.80
2024-04-02T02:56:43.025Z,1.13
2024-04-02T02:57:46.455Z,1.05
2024-04-02T02:58:50.355Z,1.05
2024-04-02T02:59:51.443Z,0.92
2024-04-02T03:00:52.557Z,1.03
2024-04-02T03:01:54.574Z,1.27
2024-04-02T03:02:56.148Z,1.35
2024-04-02T03:03:57.189Z,1.45
2024-04-02T03:04:58.200Z,1.65
2024-04-02T03:06:00.610Z,1.45
2024-04-02T03:07:01.627Z,1.40
2024-04-02T03:08:02.866Z,1.47
2024-04-02T03:09:03.930Z,1.58
2024-04-02T03:10:06.667Z,1.65
2024-04-02T03:11:08.221Z,1.62
2024-04-02T03:12:09.528Z,1.75
2024-04-02T03:13:12.849Z,1.55
2024-04-02T03:14:13.894Z,1.78
2024-04-02T03:15:15.184Z,1.72
2024-04-02T03:16:20.194Z,1.73
2024-04-02T03:17:22.250Z,1.68
2024-04-02T03:18:23.411Z,1.73
2024-04-02T03:19:24.568Z,1.80
2024-04-02T03:20:26.570Z,1.77
2024-04-02T03:21:27.778Z,1.78
2024-04-02T03:22:29.507Z,1.95
2024-04-02T03:23:30.544Z,1.75
2024-04-02T03:24:32.613Z,1.77
2024-04-02T03:25:33.624Z,1.58
2024-04-02T03:26:34.730Z,1.72
2024-04-02T03:27:35.766Z,1.68
2024-04-02T03:28:39.990Z,1.92
2024-04-02T03:29:41.126Z,2.17
2024-04-02T03:30:42.218Z,1.95
2024-04-02T03:31:45.080Z,1.82
2024-04-02T03:32:47.135Z,1.75
2024-04-02T03:33:48.241Z,1.68
2024-04-02T03:34:49.287Z,1.88
2024-04-02T03:35:51.455Z,1.85
2024-04-02T03:36:53.620Z,1.57
2024-04-02T03:37:55.684Z,1.73
2024-04-02T03:38:56.823Z,1.92
2024-04-02T03:39:58.819Z,2.08
2024-04-02T03:41:07.171Z,1.87
2024-04-02T03:42:09.160Z,1.83
2024-04-02T03:43:10.246Z,1.93
2024-04-02T03:44:13.807Z,1.93
2024-04-02T03:45:15.026Z,1.88
2024-04-02T03:46:16.012Z,1.90
2024-04-02T03:47:18.023Z,2.17
2024-04-02T03:48:19.067Z,2.10
2024-04-02T03:49:20.061Z,1.93
2024-04-02T03:50:21.191Z,2.32
2024-04-02T03:51:23.283Z,2.03
2024-04-02T03:52:24.416Z,1.78
2024-04-02T03:53:25.534Z,2.10
2024-04-02T03:54:26.614Z,1.98
2024-04-02T03:55:28.595Z,2.05
2024-04-02T03:56:29.723Z,1.95
2024-04-02T03:57:31.467Z,2.00
2024-04-02T03:58:32.570Z,2.02
2024-04-02T03:59:36.688Z,2.25
2024-04-02T04:00:41.671Z,2.08
2024-04-02T04:01:42.715Z,1.82
2024-04-02T04:02:43.733Z,1.98
2024-04-02T04:03:45.796Z,2.07
2024-04-02T04:04:48.745Z,1.83
2024-04-02T04:05:56.718Z,2.05
2024-04-02T04:06:57.837Z,2.13
2024-04-02T04:07:59.936Z,2.12
2024-04-02T04:09:00.922Z,2.03
2024-04-02T04:10:01.998Z,1.92
2024-04-02T04:11:03.699Z,1.88
2024-04-02T04:12:06.048Z,2.02
2024-04-02T04:13:07.076Z,1.97
2024-04-02T04:14:08.087Z,1.83
2024-04-02T04:15:10.479Z,1.80
2024-04-02T04:16:12.772Z,1.90
2024-04-02T04:17:13.852Z,2.08
2024-04-02T04:18:14.885Z,2.23
2024-04-02T04:19:15.899Z,1.52
2024-04-02T04:20:18.013Z,1.62
2024-04-02T04:21:19.130Z,1.53
2024-04-02T04:22:20.204Z,1.33
2024-04-02T04:23:22.514Z,1.78
2024-04-02T04:24:23.518Z,1.47
2024-04-02T04:25:24.635Z,1.43
2024-04-02T04:26:25.766Z,1.25
2024-04-02T04:27:32.084Z,1.22
2024-04-02T04:28:33.317Z,1.42
2024-04-02T04:29:34.382Z,1.20
2024-04-02T04:30:36.823Z,1.42
2024-04-02T04:31:45.656Z,1.27
2024-04-02T04:32:46.979Z,1.33
2024-04-02T04:33:48.786Z,1.28
2024-04-02T04:34:49.774Z,1.25
2024-04-02T04:35:52.618Z,1.25
2024-04-02T04:36:55.292Z,1.10
2024-04-02T04:37:56.365Z,1.17
2024-04-02T04:38:57.460Z,1.23
2024-04-02T04:39:59.940Z,1.32
2024-04-02T04:41:01.143Z,1.22
2024-04-02T04:42:02.381Z,1.25
2024-04-02T04:43:03.699Z,1.47
2024-04-02T04:44:05.754Z,2.25
2024-04-02T04:45:07.061Z,2.55
2024-04-02T04:46:09.476Z,4.52
2024-04-02T04:47:12.093Z,4.28
2024-04-02T04:48:13.151Z,3.10
2024-04-02T04:49:14.776Z,2.48
2024-04-02T04:50:15.969Z,2.20
2024-04-02T04:51:17.991Z,1.97
2024-04-02T04:52:21.472Z,1.68
2024-04-02T04:53:24.107Z,1.72
2024-04-02T04:54:26.050Z,1.40
2024-04-02T04:55:28.924Z,1.62
2024-04-02T04:56:29.898Z,1.47
2024-04-02T04:57:30.915Z,1.50
2024-04-02T04:58:33.455Z,1.62
2024-04-02T04:59:34.526Z,1.42
2024-04-02T05:00:35.628Z,1.30
2024-04-02T05:01:38.015Z,1.63
2024-04-02T05:02:40.115Z,1.45
2024-04-02T05:03:41.216Z,1.27
2024-04-02T05:04:42.246Z,1.60
2024-04-02T05:05:43.300Z,1.63
2024-04-02T05:06:47.130Z,1.68
2024-04-02T05:07:55.782Z,1.52
2024-04-02T05:08:56.908Z,1.53
2024-04-02T05:09:57.996Z,1.73
2024-04-02T05:11:00.204Z,1.75
2024-04-02T05:12:01.246Z,1.48
2024-04-02T05:13:02.260Z,1.53
2024-04-02T05:14:03.503Z,1.78
2024-04-02T05:15:07.664Z,1.80
2024-04-02T05:16:09.590Z,1.77
2024-04-02T05:17:12.014Z,1.82
2024-04-02T05:18:14.470Z,1.72
2024-04-02T05:19:15.477Z,1.77
2024-04-02T05:20:16.521Z,1.73
2024-04-02T05:21:17.725Z,1.58
2024-04-02T05:22:19.773Z,1.63
2024-04-02T05:23:21.448Z,1.77
2024-04-02T05:24:22.692Z,2.00
2024-04-02T05:25:23.744Z,1.70
2024-04-02T05:26:26.304Z,1.73
2024-04-02T05:27:27.368Z,1.80
2024-04-02T05:28:28.466Z,1.75
2024-04-02T05:29:29.690Z,1.67
2024-04-02T05:30:31.873Z,2.27
2024-04-02T05:31:33.048Z,1.93
2024-04-02T05:32:36.144Z,1.78
2024-04-02T05:33:37.406Z,2.07
2024-04-02T05:34:39.437Z,2.08
2024-04-02T05:35:40.568Z,1.95
2024-04-02T05:36:42.298Z,1.63
2024-04-02T05:37:43.367Z,1.77
2024-04-02T05:38:45.808Z,1.68
2024-04-02T06:19:12.599Z,1.53
2024-04-02T06:20:13.806Z,1.43
2024-04-02T06:21:15.879Z,1.28
2024-04-02T06:22:16.952Z,1.28
2024-04-02T06:23:18.617Z,1.25
2024-04-02T06:24:19.848Z,1.13
2024-04-02T06:25:21.857Z,1.10
2024-04-02T06:26:22.983Z,1.07
2024-04-02T06:27:24.064Z,1.22
2024-04-02T06:28:26.031Z,1.60
2024-04-02T06:29:27.700Z,1.62
2024-04-02T06:30:28.725Z,1.53
2024-04-02T06:31:29.764Z,1.25
2024-04-02T06:32:32.181Z,1.40
2024-04-02T06:33:33.261Z,1.13
2024-04-02T06:34:35.658Z,1.30
2024-04-02T06:35:36.759Z,1.45
2024-04-02T06:36:38.850Z,1.20
2024-04-02T06:37:39.889Z,1.60
2024-04-02T06:38:40.974Z,2.33
2024-04-02T06:39:43.037Z,2.33
2024-04-02T06:40:44.140Z,1.92
2024-04-02T06:41:45.160Z,2.15
2024-04-02T06:42:47.188Z,1.98
2024-04-02T06:43:48.274Z,1.48
2024-04-02T06:44:49.507Z,1.28
2024-04-02T06:45:54.025Z,1.08
2024-04-02T06:46:56.040Z,1.15
2024-04-02T06:47:57.102Z,1.13
2024-04-02T06:48:58.440Z,1.28
2024-04-02T06:50:00.833Z,1.27
2024-04-02T06:51:04.091Z,1.17
2024-04-02T06:52:06.447Z,1.25
2024-04-02T06:53:07.447Z,1.50
2024-04-02T06:54:08.529Z,1.33
2024-04-02T06:55:10.492Z,1.20
2024-04-02T06:56:11.579Z,1.38
2024-04-02T06:57:12.650Z,1.25
2024-04-02T06:58:13.704Z,1.17
2024-04-02T06:59:15.787Z,1.20
2024-04-02T07:00:17.433Z,1.35
2024-04-02T07:01:21.201Z,1.12
2024-04-02T07:02:22.269Z,1.03
2024-04-02T07:03:26.320Z,1.15
2024-04-02T07:04:28.179Z,1.13
2024-04-02T07:05:30.580Z,1.03
2024-04-02T07:06:32.765Z,1.00
2024-04-02T07:07:34.022Z,0.85
2024-04-02T07:08:35.282Z,0.80
2024-04-02T07:09:36.340Z,0.97
2024-04-02T07:10:41.733Z,1.15
2024-04-02T07:11:42.905Z,1.15
2024-04-02T07:12:43.979Z,0.98
2024-04-02T07:13:45.107Z,1.32
2024-04-02T07:14:47.142Z,1.12
2024-04-02T07:15:48.206Z,0.98
2024-04-02T07:16:49.468Z,1.07
2024-04-02T07:17:50.600Z,1.08
2024-04-02T07:18:52.582Z,1.15
2024-04-02T07:19:53.691Z,0.97
2024-04-02T07:20:59.790Z,1.03
2024-04-02T07:22:01.851Z,1.05
2024-04-02T07:23:03.017Z,1.12
2024-04-02T07:24:04.666Z,1.03
2024-04-02T07:25:06.155Z,1.07
2024-04-02T07:26:08.210Z,0.97
2024-04-02T07:27:09.461Z,0.90
2024-04-02T07:28:11.491Z,0.95
2024-04-02T07:29:12.490Z,0.80
2024-04-02T07:30:14.586Z,1.07
2024-04-02T07:31:15.852Z,1.20
2024-04-02T07:32:16.922Z,0.98
2024-04-02T07:33:18.344Z,1.07
2024-04-02T07:34:20.405Z,1.10
2024-04-02T07:35:21.529Z,0.98
2024-04-02T07:36:23.991Z,0.98
2024-04-02T07:37:26.902Z,1.15
2024-04-02T07:38:28.993Z,1.20
2024-04-02T07:39:30.984Z,1.28
2024-04-02T07:40:32.440Z,1.03
2024-04-02T07:41:33.487Z,0.80
2024-04-02T07:42:35.495Z,0.83
2024-04-02T07:43:36.616Z,0.92
2024-04-02T07:44:37.578Z,1.05
2024-04-02T07:45:39.973Z,1.08
2024-04-02T07:46:40.991Z,1.02
2024-04-02T07:47:46.469Z,1.03
2024-04-02T07:48:48.514Z,1.12
2024-04-02T07:49:51.113Z,1.30
2024-04-02T07:50:53.283Z,1.03
2024-04-02T07:51:56.071Z,1.12
2024-04-02T07:52:58.100Z,1.23
2024-04-02T07:53:59.083Z,0.97
2024-04-02T07:55:00.128Z,1.40
2024-04-02T07:56:01.257Z,1.07
2024-04-02T07:57:03.607Z,0.95
2024-04-02T07:58:04.778Z,1.15
2024-04-02T07:59:07.493Z,1.27
2024-04-02T08:00:11.053Z,1.20
2024-04-02T08:01:13.087Z,0.90
2024-04-02T08:02:14.093Z,0.85
2024-04-02T08:03:15.364Z,1.18
2024-04-02T08:04:17.691Z,0.95
2024-04-02T08:05:19.802Z,1.07
2024-04-02T08:06:20.988Z,0.90
2024-04-02T08:07:23.401Z,0.95
2024-04-02T08:08:25.519Z,0.78
2024-04-02T08:09:26.538Z,1.12
2024-04-02T08:10:27.525Z,1.18
2024-04-02T08:11:29.613Z,1.32
2024-04-02T08:12:31.010Z,1.07
2024-04-02T08:13:32.038Z,1.20
2024-04-02T08:14:34.068Z,1.02
2024-04-02T08:15:36.226Z,1.10
2024-04-02T08:16:37.339Z,1.03
2024-04-02T08:17:38.990Z,1.20
2024-04-02T08:18:40.051Z,1.05
2024-04-02T08:19:42.091Z,1.00
2024-04-02T08:20:43.147Z,1.20
2024-04-02T08:21:45.090Z,1.58
2024-04-02T08:22:48.644Z,1.18
2024-04-02T08:23:49.654Z,0.92
2024-04-02T08:24:53.244Z,1.23
2024-04-02T08:25:55.371Z,1.05
2024-04-02T08:26:57.703Z,1.37
2024-04-02T08:27:59.478Z,1.00
2024-04-02T08:29:00.727Z,1.12
2024-04-02T08:30:05.351Z,1.32
2024-04-02T08:31:06.412Z,1.10
2024-04-02T08:32:07.970Z,1.05
2024-04-02T08:33:09.088Z,1.10
2024-04-02T08:34:11.928Z,1.03
2024-04-02T08:35:13.160Z,1.15
2024-04-02T08:36:14.287Z,0.97
2024-04-02T08:37:16.389Z,0.97
2024-04-02T08:38:18.912Z,1.13
2024-04-02T08:39:20.016Z,1.25
2024-04-02T08:40:23.823Z,1.35
2024-04-02T08:41:26.767Z,1.27
2024-04-02T08:42:29.695Z,1.07
2024-04-02T08:43:35.291Z,1.18
2024-04-02T08:44:37.266Z,0.98
2024-04-02T08:45:40.447Z,1.17
2024-04-02T08:46:41.501Z,0.93
2024-04-02T08:47:42.575Z,1.17
2024-04-02T08:48:45.566Z,1.00
2024-04-02T08:49:46.821Z,1.02
2024-04-02T08:50:48.576Z,1.05
2024-04-02T08:51:49.685Z,1.07
2024-04-02T08:52:52.002Z,1.02
2024-04-02T08:53:54.705Z,0.95
2024-04-02T08:54:55.783Z,1.10
2024-04-02T08:55:59.638Z,1.12
2024-04-02T08:57:03.053Z,0.97
2024-04-02T08:58:04.625Z,0.92
2024-04-02T08:59:05.936Z,1.25
2024-04-02T09:00:11.312Z,1.20
2024-04-02T09:01:12.852Z,1.12
2024-04-02T09:02:15.571Z,1.15
2024-04-02T09:03:16.794Z,1.10
2024-04-02T09:04:20.429Z,1.40
2024-04-02T09:05:21.620Z,2.12
2024-04-02T09:06:22.922Z,1.85
2024-04-02T09:07:24.738Z,1.13
2024-04-02T09:08:26.806Z,1.45
2024-04-02T09:09:29.312Z,1.87
2024-04-02T09:10:31.004Z,1.52
2024-04-02T09:11:34.240Z,1.27
2024-04-02T09:12:35.680Z,1.05
2024-04-02T09:13:37.078Z,1.17
2024-04-02T09:14:38.838Z,1.05
2024-04-02T09:15:40.939Z,1.15
2024-04-02T09:16:42.333Z,1.07
2024-04-02T09:17:43.345Z,1.18
2024-04-02T09:18:46.038Z,1.13
2024-04-02T09:19:48.079Z,1.13
2024-04-02T09:20:49.136Z,0.97
2024-04-02T09:21:50.329Z,1.08
2024-04-02T09:22:51.490Z,1.22
2024-04-02T09:23:54.149Z,1.07
2024-04-02T09:24:57.410Z,1.10
2024-04-02T09:25:58.483Z,1.38
2024-04-02T09:27:00.524Z,1.30
2024-04-02T09:28:01.616Z,1.17
2024-04-02T09:29:03.414Z,1.35
2024-04-02T09:30:05.755Z,1.15
2024-04-02T09:31:07.988Z,0.87
2024-04-02T09:32:09.647Z,0.93
2024-04-02T09:33:11.410Z,0.95
2024-04-02T09:34:14.425Z,1.15
2024-04-02T09:35:27.631Z,0.97
2024-04-02T09:36:40.210Z,1.00
2024-04-02T09:37:47.641Z,0.98
2024-04-02T09:38:49.230Z,1.02
2024-04-02T09:39:53.933Z,1.00
2024-04-02T09:40:58.162Z,1.18
2024-04-02T09:42:02.968Z,1.70
2024-04-02T09:43:07.486Z,1.27
2024-04-02T09:44:10.325Z,0.97
2024-04-02T09:45:12.091Z,1.10
2024-04-02T09:46:14.534Z,1.12
2024-04-02T09:47:18.504Z,1.15
2024-04-02T09:48:22.300Z,1.15
2024-04-02T09:49:28.032Z,1.07
2024-04-02T09:50:31.267Z,1.08
2024-04-02T09:51:32.461Z,1.05
2024-04-02T09:52:34.098Z,1.12
2024-04-02T09:53:37.465Z,1.42
2024-04-02T09:54:40.451Z,1.07
2024-04-02T09:55:41.502Z,1.20
2024-04-02T09:56:46.272Z,1.38
2024-04-02T09:57:47.715Z,1.17
2024-04-02T09:58:48.916Z,1.27
2024-04-02T09:59:50.116Z,1.60
2024-04-02T10:00:55.560Z,1.55
2024-04-02T10:01:58.233Z,1.80
2024-04-02T10:03:01.201Z,1.20
2024-04-02T10:04:05.940Z,1.00
2024-04-02T10:05:08.911Z,1.12
2024-04-02T10:06:10.824Z,1.02
2024-04-02T10:07:20.069Z,1.30
2024-04-02T10:08:26.592Z,1.33
2024-04-02T10:09:41.004Z,1.25
2024-04-02T10:10:42.508Z,1.15
2024-04-02T10:11:46.721Z,0.90
2024-04-02T10:12:51.675Z,1.08
2024-04-02T10:14:02.164Z,1.08
2024-04-02T10:15:04.442Z,0.95
2024-04-02T10:16:10.140Z,0.97
2024-04-02T10:17:15.895Z,1.02
2024-04-02T10:18:16.933Z,0.97
2024-04-02T10:19:19.734Z,0.98
2024-04-02T10:20:24.766Z,0.85
2024-04-02T10:21:25.842Z,1.12
2024-04-02T10:22:30.944Z,0.88
2024-04-02T10:23:32.036Z,1.15
2024-04-02T10:24:33.392Z,1.13
2024-04-02T10:25:37.197Z,0.98
2024-04-02T10:26:40.234Z,1.10
2024-04-02T10:27:44.806Z,1.03
2024-04-02T10:28:45.864Z,1.03
2024-04-02T10:29:46.904Z,1.08
2024-04-02T10:30:48.947Z,1.17
2024-04-02T10:31:50.187Z,1.18
2024-04-02T10:32:51.956Z,1.13
2024-04-02T10:33:54.431Z,1.47
2024-04-02T10:34:56.545Z,1.13
2024-04-02T10:36:01.673Z,1.20
2024-04-02T10:37:05.596Z,1.20
2024-04-02T10:38:08.534Z,1.12
2024-04-02T10:39:10.972Z,2.25
2024-04-02T10:40:12.016Z,1.52
2024-04-02T10:41:14.413Z,1.00
2024-04-02T10:42:17.439Z,1.07
2024-04-02T10:43:19.979Z,0.85
2024-04-02T10:44:21.126Z,0.78
2024-04-02T10:45:23.300Z,0.88
2024-04-02T10:46:28.377Z,0.97
2024-04-02T10:47:29.986Z,1.00
2024-04-02T10:48:31.015Z,1.12
2024-04-02T10:49:33.025Z,1.10
2024-04-02T10:50:34.037Z,1.17
2024-04-02T10:51:35.319Z,1.23
2024-04-02T10:52:36.751Z,1.25
2024-04-02T10:53:40.010Z,1.17
2024-04-02T10:54:41.860Z,1.37
2024-04-02T10:55:43.006Z,0.97
2024-04-02T10:56:44.146Z,1.05
2024-04-02T10:57:46.201Z,1.00
2024-04-02T10:58:49.233Z,1.28
2024-04-02T10:59:50.287Z,0.95
2024-04-02T11:00:52.452Z,0.87
2024-04-02T11:01:55.485Z,1.12
2024-04-02T11:02:56.798Z,1.03
2024-04-02T11:03:58.883Z,0.87
2024-04-02T11:05:01.043Z,0.77
2024-04-02T11:06:03.592Z,1.00
2024-04-02T11:07:09.747Z,0.98
2024-04-02T11:08:12.585Z,1.13
2024-04-02T11:09:14.639Z,1.15
2024-04-02T11:10:15.907Z,1.30
2024-04-02T11:11:21.860Z,1.12
2024-04-02T11:12:24.445Z,1.40
2024-04-02T11:13:25.924Z,1.68
2024-04-02T11:14:28.555Z,1.78
2024-04-02T11:15:30.806Z,1.87
2024-04-02T11:16:32.496Z,1.50
2024-04-02T11:17:33.991Z,0.90
2024-04-02T11:18:35.005Z,1.00
2024-04-02T11:19:38.204Z,1.08
2024-04-02T11:20:39.629Z,0.93
2024-04-02T11:21:40.765Z,0.92
2024-04-02T11:23:00.282Z,0.92
2024-04-02T11:24:20.003Z,0.92
2024-04-02T11:25:28.615Z,0.75
2024-04-02T11:26:31.185Z,0.78
2024-04-02T11:27:33.005Z,0.82
2024-04-02T11:28:34.979Z,0.77
2024-04-02T11:29:37.373Z,0.85
2024-04-02T11:30:40.099Z,0.95
2024-04-02T11:31:42.388Z,1.10
2024-04-02T11:32:43.804Z,1.08
2024-04-02T11:33:44.902Z,1.15
2024-04-02T11:34:54.316Z,1.40
2024-04-02T11:35:56.661Z,1.13
2024-04-02T11:36:57.898Z,1.28
2024-04-02T11:37:58.987Z,0.95
2024-04-02T11:39:00.069Z,1.10
2024-04-02T11:40:02.583Z,1.07
2024-04-02T11:41:05.993Z,1.00
2024-04-02T11:42:07.083Z,1.23
2024-04-02T11:43:08.614Z,0.88
2024-04-02T11:44:11.471Z,0.77
2024-04-02T11:45:14.196Z,0.82
2024-04-02T11:46:15.194Z,0.70
2024-04-02T11:47:17.219Z,0.98
2024-04-02T11:48:18.426Z,0.97
2024-04-02T11:49:19.511Z,0.85
2024-04-02T11:50:21.834Z,0.85
2024-04-02T11:51:23.072Z,0.88
2024-04-02T11:52:24.195Z,0.98
2024-04-02T11:53:25.479Z,1.12
2024-04-02T11:54:27.544Z,1.57
2024-04-02T11:55:29.016Z,1.55
2024-04-02T11:56:50.818Z,1.58
2024-04-02T11:58:10.815Z,2.55
2024-04-02T11:59:35.017Z,2.42
2024-04-02T12:00:38.813Z,2.42
2024-04-02T12:01:40.228Z,2.68
2024-04-02T12:02:43.496Z,2.80
2024-04-02T12:03:45.526Z,2.55
2024-04-02T12:04:46.664Z,1.95
2024-04-02T12:05:49.983Z,1.87
2024-04-02T12:06:55.450Z,2.27
2024-04-02T12:07:56.750Z,2.63
2024-04-02T12:09:00.441Z,1.47
2024-04-02T12:10:03.009Z,1.40
2024-04-02T12:11:04.496Z,1.05
2024-04-02T12:12:07.527Z,1.10
2024-04-02T12:13:08.750Z,0.90
2024-04-02T12:14:09.747Z,0.83
2024-04-02T12:15:11.849Z,0.87
2024-04-02T12:16:14.282Z,1.08
2024-04-02T12:17:15.515Z,0.90
2024-04-02T12:18:17.542Z,1.18
2024-04-02T12:19:18.642Z,0.93
2024-04-02T12:20:19.914Z,0.92
2024-04-02T12:21:21.944Z,0.95
2024-04-02T12:22:23.471Z,1.03
2024-04-02T12:23:24.783Z,0.85
2024-04-02T12:24:25.935Z,0.97
2024-04-02T12:25:28.001Z,0.98
2024-04-02T12:26:29.327Z,0.92
2024-04-02T12:27:30.828Z,0.70
2024-04-02T12:28:31.844Z,7.37
2024-04-02T12:29:33.035Z,6.08
2024-04-02T12:30:35.134Z,2.48
2024-04-02T12:31:38.105Z,1.75
2024-04-02T12:32:41.215Z,1.12
2024-04-02T12:33:43.304Z,1.22
2024-04-02T12:34:46.811Z,1.22
2024-04-02T12:35:54.256Z,3.40
2024-04-02T12:36:56.798Z,3.20
2024-04-02T12:37:57.990Z,4.90
2024-04-02T12:38:59.053Z,8.65
2024-04-02T12:40:00.060Z,7.07
2024-04-02T12:41:02.681Z,6.23
2024-04-02T12:42:04.702Z,5.28
2024-04-02T12:43:05.805Z,3.55
2024-04-02T12:44:07.355Z,2.97
2024-04-02T12:45:09.522Z,2.10
2024-04-02T12:46:10.557Z,1.47
2024-04-02T12:47:13.015Z,1.93
2024-04-02T12:48:14.053Z,1.47
2024-04-02T12:49:23.562Z,1.43
2024-04-02T12:50:25.131Z,1.53
2024-04-02T12:51:26.211Z,1.80
2024-04-02T12:52:30.498Z,2.20
2024-04-02T12:53:31.567Z,3.35
2024-04-02T12:54:33.074Z,5.55
2024-04-02T12:55:36.357Z,4.33
2024-04-02T12:56:37.462Z,3.08
2024-04-02T12:57:39.008Z,2.73
2024-04-02T12:58:40.089Z,2.68
2024-04-02T12:59:42.148Z,2.48
2024-04-02T13:00:43.306Z,2.37
2024-04-02T13:01:44.364Z,2.25
2024-04-02T13:02:46.831Z,1.93
2024-04-02T13:03:48.895Z,2.55
2024-04-02T13:04:50.038Z,2.53
2024-04-02T13:05:51.136Z,2.98
2024-04-02T13:06:52.294Z,2.38
2024-04-02T13:07:54.315Z,2.78
2024-04-02T13:08:55.451Z,2.98
2024-04-02T13:09:58.130Z,3.00
2024-04-02T13:10:59.294Z,2.15
2024-04-02T13:12:01.330Z,2.17
2024-04-02T13:13:02.437Z,1.75
2024-04-02T13:14:03.846Z,1.25
2024-04-02T13:15:05.760Z,1.32
2024-04-02T13:16:09.049Z,1.85
2024-04-02T13:17:10.224Z,1.88
2024-04-02T13:18:13.092Z,1.33
2024-04-02T13:19:15.483Z,1.38
2024-04-02T13:20:17.458Z,1.42
2024-04-02T13:21:18.979Z,1.47
2024-04-02T13:22:20.036Z,2.72
2024-04-02T13:23:22.161Z,2.87
2024-04-02T13:24:23.998Z,4.22
2024-04-02T13:25:25.820Z,5.85
2024-04-02T13:26:27.873Z,6.25
2024-04-02T13:27:30.150Z,5.02
2024-04-02T13:28:31.145Z,2.95
2024-04-02T13:29:32.471Z,2.20
2024-04-02T13:30:33.593Z,1.95
2024-04-02T13:31:35.640Z,2.63
2024-04-02T13:32:36.772Z,3.03
2024-04-02T13:33:39.257Z,2.50
2024-04-02T13:34:40.378Z,2.78
2024-04-02T13:35:42.373Z,3.00
2024-04-02T13:36:43.450Z,2.82
2024-04-02T13:37:44.991Z,2.55
2024-04-02T13:38:47.558Z,2.07
2024-04-02T13:39:49.607Z,2.63
2024-04-02T13:40:50.918Z,2.40
2024-04-02T13:41:51.946Z,2.03
2024-04-02T13:42:53.231Z,2.15
2024-04-02T13:43:55.505Z,1.50
2024-04-02T13:44:56.574Z,1.53
2024-04-02T13:46:00.238Z,2.63
2024-04-02T13:47:01.347Z,3.67
2024-04-02T13:48:03.422Z,3.18
2024-04-02T13:49:05.851Z,2.32
2024-04-02T13:50:07.700Z,2.73
2024-04-02T13:51:09.814Z,2.92
2024-04-02T13:52:11.837Z,2.53
2024-04-02T13:53:12.918Z,1.98
2024-04-02T13:54:14.131Z,1.93
2024-04-02T13:55:15.308Z,2.53
2024-04-02T13:56:19.601Z,3.48
2024-04-02T13:57:20.724Z,2.42
2024-04-02T13:58:21.837Z,2.60
2024-04-02T13:59:23.243Z,3.12
2024-04-02T14:00:25.238Z,3.15
2024-04-02T14:01:26.565Z,2.60
2024-04-02T14:02:27.839Z,2.30
2024-04-02T14:03:29.543Z,2.92
2024-04-02T14:04:33.197Z,3.45
2024-04-02T14:05:34.551Z,2.72
2024-04-02T14:06:35.807Z,2.43
2024-04-02T14:07:37.068Z,2.67
2024-04-02T14:08:40.970Z,3.57
2024-04-02T14:09:41.988Z,2.83
2024-04-02T14:10:43.136Z,1.70
2024-04-02T14:11:46.004Z,1.70
2024-04-02T14:12:49.863Z,1.77
2024-04-02T14:13:50.899Z,1.42
2024-04-02T14:14:51.966Z,2.05
2024-04-02T14:15:54.335Z,5.88
2024-04-02T14:16:57.558Z,10.58
2024-04-02T14:18:00.246Z,26.67
2024-04-02T14:19:02.427Z,11.88
2024-04-02T14:20:08.568Z,2.17
2024-04-02T14:21:12.795Z,1.88
2024-04-02T14:22:13.847Z,1.45
2024-04-02T14:23:14.895Z,1.23
2024-04-02T14:24:16.922Z,1.33
2024-04-02T14:25:18.246Z,1.42
2024-04-02T14:26:19.339Z,1.53
2024-04-02T14:27:20.360Z,1.40